sensor_id;sensor_type;location;lat;lon;timestamp;pressure;altitude;pressure_sealevel;temperature;humidity
53932;BME280;39844;52.496;13.482;2023-08-30T00:00:32;100519.09;;;15.11;100.00
53932;BME280;39844;52.496;13.482;2023-08-30T00:02:57;100516.53;;;15.08;100.00
53932;BME280;39844;52.496;13.482;2023-08-30T00:05:23;100520.06;;;15.09;100.00
53932;BME280;39844;52.496;13.482;2023-08-30T00:07:48;100527.09;;;15.10;100.00
53932;BME280;39844;52.496;13.482;2023-08-30T00:10:13;100529.75;;;15.08;100.00
53932;BME280;39844;52.496;13.482;2023-08-30T00:12:38;100519.09;;;15.11;100.00
53932;BME280;39844;52.496;13.482;2023-08-30T00:15:04;100526.16;;;15.12;100.00
53932;BME280;39844;52.496;13.482;2023-08-30T00:17:29;100527.88;;;15.13;100.00
53932;BME280;39844;52.496;13.482;2023-08-30T00:19:55;100529.69;;;15.11;100.00
53932;BME280;39844;52.496;13.482;2023-08-30T00:22:21;100530.56;;;15.12;100.00
53932;BME280;39844;52.496;13.482;2023-08-30T00:24:47;100531.44;;;15.12;100.00
53932;BME280;39844;52.496;13.482;2023-08-30T00:27:12;100524.31;;;15.14;100.00
53932;BME280;39844;52.496;13.482;2023-08-30T00:29:37;100527.75;;;15.18;100.00
53932;BME280;39844;52.496;13.482;2023-08-30T00:32:03;100531.25;;;15.18;100.00
53932;BME280;39844;52.496;13.482;2023-08-30T00:34:28;100525.09;;;15.18;100.00
53932;BME280;39844;52.496;13.482;2023-08-30T00:36:54;100522.50;;;15.16;100.00
53932;BME280;39844;52.496;13.482;2023-08-30T00:39:19;100522.44;;;15.18;100.00
53932;BME280;39844;52.496;13.482;2023-08-30T00:41:44;100515.41;;;15.18;100.00
53932;BME280;39844;52.496;13.482;2023-08-30T00:44:10;100505.81;;;15.14;100.00
53932;BME280;39844;52.496;13.482;2023-08-30T00:46:35;100498.78;;;15.13;100.00
53932;BME280;39844;52.496;13.482;2023-08-30T00:49:01;100505.00;;;15.12;100.00
53932;BME280;39844;52.496;13.482;2023-08-30T00:51:27;100505.00;;;15.12;100.00
53932;BME280;39844;52.496;13.482;2023-08-30T00:53:54;100496.13;;;15.15;100.00
53932;BME280;39844;52.496;13.482;2023-08-30T00:56:20;100501.34;;;15.16;100.00
53932;BME280;39844;52.496;13.482;2023-08-30T00:58:47;100507.47;;;15.18;100.00
53932;BME280;39844;52.496;13.482;2023-08-30T01:01:13;100504.00;;;15.16;100.00
53932;BME280;39844;52.496;13.482;2023-08-30T01:03:38;100510.16;;;15.17;100.00
53932;BME280;39844;52.496;13.482;2023-08-30T01:06:03;100511.13;;;15.13;100.00
53932;BME280;39844;52.496;13.482;2023-08-30T01:08:29;100519.03;;;15.14;100.00
53932;BME280;39844;52.496;13.482;2023-08-30T01:11:04;100518.97;;;15.16;100.00
53932;BME280;39844;52.496;13.482;2023-08-30T01:13:32;100518.09;;;15.15;100.00
53932;BME280;39844;52.496;13.482;2023-08-30T01:15:58;100526.16;;;15.12;100.00
53932;BME280;39844;52.496;13.482;2023-08-30T01:18:26;100524.44;;;15.10;100.00
53932;BME280;39844;52.496;13.482;2023-08-30T01:20:55;100521.81;;;15.08;100.00
53932;BME280;39844;52.496;13.482;2023-08-30T01:23:34;100521.81;;;15.08;100.00
53932;BME280;39844;52.496;13.482;2023-08-30T01:26:11;100520.06;;;15.09;100.00
53932;BME280;39844;52.496;13.482;2023-08-30T01:28:39;100530.56;;;15.12;100.00
53932;BME280;39844;52.496;13.482;2023-08-30T01:31:04;100533.22;;;15.10;100.00
53932;BME280;39844;52.496;13.482;2023-08-30T01:33:32;100535.84;;;15.12;100.00
53932;BME280;39844;52.496;13.482;2023-08-30T01:35:59;100530.63;;;15.09;100.00
53932;BME280;39844;52.496;13.482;2023-08-30T01:38:29;100522.56;;;15.13;100.00
53932;BME280;39844;52.496;13.482;2023-08-30T01:40:57;100529.53;;;15.17;100.00
53932;BME280;39844;52.496;13.482;2023-08-30T01:43:25;100526.78;;;15.20;100.00
53932;BME280;39844;52.496;13.482;2023-08-30T01:45:51;100520.69;;;15.18;100.00
53932;BME280;39844;52.496;13.482;2023-08-30T01:48:17;100533.00;;;15.19;100.00
53932;BME280;39844;52.496;13.482;2023-08-30T01:50:44;100535.66;;;15.19;100.00
53932;BME280;39844;52.496;13.482;2023-08-30T01:53:11;100547.13;;;15.18;100.00
53932;BME280;39844;52.496;13.482;2023-08-30T01:55:38;100548.88;;;15.19;100.00
53932;BME280;39844;52.496;13.482;2023-08-30T01:58:04;100549.75;;;15.20;100.00
53932;BME280;39844;52.496;13.482;2023-08-30T02:00:29;100548.75;;;15.24;100.00
53932;BME280;39844;52.496;13.482;2023-08-30T02:02:56;100545.31;;;15.20;100.00
53932;BME280;39844;52.496;13.482;2023-08-30T02:05:21;100542.75;;;15.17;100.00
53932;BME280;39844;52.496;13.482;2023-08-30T02:08:19;100533.31;;;15.07;100.00
53932;BME280;39844;52.496;13.482;2023-08-30T02:10:56;100536.91;;;15.05;100.00
53932;BME280;39844;52.496;13.482;2023-08-30T02:13:26;100538.75;;;15.01;100.00
53932;BME280;39844;52.496;13.482;2023-08-30T02:15:58;100550.31;;;14.97;100.00
53932;BME280;39844;52.496;13.482;2023-08-30T02:18:25;100543.34;;;14.93;100.00
53932;BME280;39844;52.496;13.482;2023-08-30T02:20:51;100546.00;;;14.93;100.00
53932;BME280;39844;52.496;13.482;2023-08-30T02:23:16;100534.59;;;14.91;100.00
53932;BME280;39844;52.496;13.482;2023-08-30T02:25:42;100535.50;;;14.90;100.00
53932;BME280;39844;52.496;13.482;2023-08-30T02:28:07;100546.06;;;14.90;100.00
53932;BME280;39844;52.496;13.482;2023-08-30T02:30:32;100544.31;;;14.91;100.00
53932;BME280;39844;52.496;13.482;2023-08-30T02:32:57;100541.63;;;14.92;100.00
53932;BME280;39844;52.496;13.482;2023-08-30T02:35:23;100537.19;;;14.94;100.00
53932;BME280;39844;52.496;13.482;2023-08-30T02:37:48;100534.59;;;14.91;100.00
53932;BME280;39844;52.496;13.482;2023-08-30T02:40:13;100534.56;;;14.93;100.00
53932;BME280;39844;52.496;13.482;2023-08-30T02:42:39;100539.84;;;14.93;100.00
53932;BME280;39844;52.496;13.482;2023-08-30T02:45:04;100537.25;;;14.91;100.00
53932;BME280;39844;52.496;13.482;2023-08-30T02:47:30;100532.03;;;14.88;100.00
53932;BME280;39844;52.496;13.482;2023-08-30T02:49:55;100533.88;;;14.85;100.00
53932;BME280;39844;52.496;13.482;2023-08-30T02:52:20;100521.66;;;14.81;100.00
53932;BME280;39844;52.496;13.482;2023-08-30T02:54:45;100519.06;;;14.78;100.00
53932;BME280;39844;52.496;13.482;2023-08-30T02:57:11;100518.19;;;14.77;100.00
53932;BME280;39844;52.496;13.482;2023-08-30T02:59:36;100506.78;;;14.77;100.00
53932;BME280;39844;52.496;13.482;2023-08-30T03:02:01;100511.94;;;14.81;100.00
53932;BME280;39844;52.496;13.482;2023-08-30T03:04:27;100511.03;;;14.82;100.00
53932;BME280;39844;52.496;13.482;2023-08-30T03:06:52;100505.84;;;14.79;100.00
53932;BME280;39844;52.496;13.482;2023-08-30T03:09:17;100488.25;;;14.78;100.00
53932;BME280;39844;52.496;13.482;2023-08-30T03:11:43;100486.50;;;14.77;100.00
53932;BME280;39844;52.496;13.482;2023-08-30T03:14:08;100490.00;;;14.78;100.00
53932;BME280;39844;52.496;13.482;2023-08-30T03:16:33;100489.25;;;14.74;100.00
53932;BME280;39844;52.496;13.482;2023-08-30T03:18:59;100489.31;;;14.70;100.00
53932;BME280;39844;52.496;13.482;2023-08-30T03:21:24;100488.56;;;14.66;100.00
53932;BME280;39844;52.496;13.482;2023-08-30T03:23:49;100486.81;;;14.65;100.00
53932;BME280;39844;52.496;13.482;2023-08-30T03:26:15;100486.03;;;14.62;100.00
53932;BME280;39844;52.496;13.482;2023-08-30T03:28:42;100492.25;;;14.59;100.00
53932;BME280;39844;52.496;13.482;2023-08-30T03:31:26;100494.03;;;14.57;100.00
53932;BME280;39844;52.496;13.482;2023-08-30T03:33:51;100493.19;;;14.57;100.00
53932;BME280;39844;52.496;13.482;2023-08-30T03:36:18;100501.97;;;14.57;100.00
53932;BME280;39844;52.496;13.482;2023-08-30T03:38:44;100515.22;;;14.55;100.00
53932;BME280;39844;52.496;13.482;2023-08-30T03:41:10;100504.66;;;14.55;100.00
53932;BME280;39844;52.496;13.482;2023-08-30T03:43:36;100515.16;;;14.57;100.00
53932;BME280;39844;52.496;13.482;2023-08-30T03:46:02;100514.28;;;14.58;100.00
53932;BME280;39844;52.496;13.482;2023-08-30T03:48:27;100516.03;;;14.57;100.00
53932;BME280;39844;52.496;13.482;2023-08-30T03:50:54;100523.16;;;14.55;100.00
53932;BME280;39844;52.496;13.482;2023-08-30T03:53:19;100525.84;;;14.54;100.00
53932;BME280;39844;52.496;13.482;2023-08-30T03:55:45;100519.78;;;14.49;100.00
53932;BME280;39844;52.496;13.482;2023-08-30T03:58:10;100529.53;;;14.45;100.00
53932;BME280;39844;52.496;13.482;2023-08-30T04:00:36;100530.44;;;14.44;100.00
53932;BME280;39844;52.496;13.482;2023-08-30T04:03:02;100523.38;;;14.45;100.00
53932;BME280;39844;52.496;13.482;2023-08-30T04:05:35;100515.47;;;14.45;100.00
53932;BME280;39844;52.496;13.482;2023-08-30T04:08:02;100520.69;;;14.48;100.00
53932;BME280;39844;52.496;13.482;2023-08-30T04:10:28;100518.94;;;14.47;100.00
53932;BME280;39844;52.496;13.482;2023-08-30T04:12:53;100521.63;;;14.45;100.00
53932;BME280;39844;52.496;13.482;2023-08-30T04:15:18;100521.69;;;14.42;100.00
53932;BME280;39844;52.496;13.482;2023-08-30T04:17:44;100519.97;;;14.41;100.00
53932;BME280;39844;52.496;13.482;2023-08-30T04:20:09;100517.31;;;14.41;100.00
53932;BME280;39844;52.496;13.482;2023-08-30T04:22:35;100521.75;;;14.39;100.00
53932;BME280;39844;52.496;13.482;2023-08-30T04:25:00;100519.16;;;14.38;100.00
53932;BME280;39844;52.496;13.482;2023-08-30T04:27:25;100524.44;;;14.38;100.00
53932;BME280;39844;52.496;13.482;2023-08-30T04:29:52;100526.19;;;14.37;100.00
53932;BME280;39844;52.496;13.482;2023-08-30T04:32:18;100534.94;;;14.41;100.00
53932;BME280;39844;52.496;13.482;2023-08-30T04:34:43;100526.91;;;14.45;100.00
53932;BME280;39844;52.496;13.482;2023-08-30T04:37:08;100536.59;;;14.45;100.00
53932;BME280;39844;52.496;13.482;2023-08-30T04:39:33;100531.34;;;14.43;100.00
53932;BME280;39844;52.496;13.482;2023-08-30T04:41:59;100537.50;;;14.44;100.00
53932;BME280;39844;52.496;13.482;2023-08-30T04:44:24;100534.00;;;14.43;100.00
53932;BME280;39844;52.496;13.482;2023-08-30T04:46:49;100544.50;;;14.45;100.00
53932;BME280;39844;52.496;13.482;2023-08-30T04:49:15;100538.34;;;14.44;100.00
53932;BME280;39844;52.496;13.482;2023-08-30T04:51:40;100545.31;;;14.48;100.00
53932;BME280;39844;52.496;13.482;2023-08-30T04:54:06;100538.22;;;14.50;100.00
53932;BME280;39844;52.496;13.482;2023-08-30T04:56:31;100533.00;;;14.49;100.00
53932;BME280;39844;52.496;13.482;2023-08-30T04:58:56;100539.09;;;14.51;100.00
53932;BME280;39844;52.496;13.482;2023-08-30T05:01:21;100538.13;;;14.55;100.00
53932;BME280;39844;52.496;13.482;2023-08-30T05:03:47;100546.84;;;14.59;100.00
53932;BME280;39844;52.496;13.482;2023-08-30T05:06:12;100551.16;;;14.63;100.00
53932;BME280;39844;52.496;13.482;2023-08-30T05:08:37;100558.13;;;14.67;100.00
53932;BME280;39844;52.496;13.482;2023-08-30T05:11:03;100560.66;;;14.71;100.00
53932;BME280;39844;52.496;13.482;2023-08-30T05:13:28;100555.34;;;14.71;100.00
53932;BME280;39844;52.496;13.482;2023-08-30T05:15:53;100553.47;;;14.76;100.00
53932;BME280;39844;52.496;13.482;2023-08-30T05:18:19;100556.00;;;14.81;100.00
53932;BME280;39844;52.496;13.482;2023-08-30T05:20:44;100553.25;;;14.85;100.00
53932;BME280;39844;52.496;13.482;2023-08-30T05:23:10;100547.81;;;14.91;100.00
53932;BME280;39844;52.496;13.482;2023-08-30T05:25:35;100548.56;;;14.96;100.00
53932;BME280;39844;52.496;13.482;2023-08-30T05:28:00;100553.63;;;15.05;100.00
53932;BME280;39844;52.496;13.482;2023-08-30T05:30:25;100547.19;;;15.15;100.00
53932;BME280;39844;52.496;13.482;2023-08-30T05:32:51;100540.00;;;15.20;100.00
53932;BME280;39844;52.496;13.482;2023-08-30T05:35:16;100538.22;;;15.23;100.00
53932;BME280;39844;52.496;13.482;2023-08-30T05:37:41;100532.81;;;15.27;100.00
53932;BME280;39844;52.496;13.482;2023-08-30T05:40:07;100534.53;;;15.28;100.00
53932;BME280;39844;52.496;13.482;2023-08-30T05:42:32;100527.44;;;15.30;100.00
53932;BME280;39844;52.496;13.482;2023-08-30T05:44:58;100529.16;;;15.31;100.00
53932;BME280;39844;52.496;13.482;2023-08-30T05:47:23;100527.34;;;15.33;100.00
53932;BME280;39844;52.496;13.482;2023-08-30T05:49:48;100531.59;;;15.39;100.00
53932;BME280;39844;52.496;13.482;2023-08-30T05:52:14;100534.13;;;15.43;100.00
53932;BME280;39844;52.496;13.482;2023-08-30T05:54:40;100534.09;;;15.45;100.00
53932;BME280;39844;52.496;13.482;2023-08-30T05:57:05;100538.34;;;15.52;100.00
53932;BME280;39844;52.496;13.482;2023-08-30T05:59:30;100544.38;;;15.57;100.00
53932;BME280;39844;52.496;13.482;2023-08-30T06:01:56;100530.06;;;15.64;100.00
53932;BME280;39844;52.496;13.482;2023-08-30T06:04:21;100522.97;;;15.66;100.00
53932;BME280;39844;52.496;13.482;2023-08-30T06:06:46;100519.38;;;15.68;100.00
53932;BME280;39844;52.496;13.482;2023-08-30T06:09:12;100518.44;;;15.69;100.00
53932;BME280;39844;52.496;13.482;2023-08-30T06:11:37;100519.22;;;15.73;100.00
53932;BME280;39844;52.496;13.482;2023-08-30T06:14:02;100515.78;;;15.71;100.00
53932;BME280;39844;52.496;13.482;2023-08-30T06:16:28;100520.88;;;15.77;100.00
53932;BME280;39844;52.496;13.482;2023-08-30T06:18:53;100525.22;;;15.79;100.00
53932;BME280;39844;52.496;13.482;2023-08-30T06:21:18;100524.16;;;15.85;100.00
53932;BME280;39844;52.496;13.482;2023-08-30T06:23:43;100519.66;;;15.89;99.75
53932;BME280;39844;52.496;13.482;2023-08-30T06:26:09;100520.44;;;15.92;100.00
53932;BME280;39844;52.496;13.482;2023-08-30T06:28:34;100522.09;;;15.96;99.09
53932;BME280;39844;52.496;13.482;2023-08-30T06:30:59;100527.28;;;15.99;98.92
53932;BME280;39844;52.496;13.482;2023-08-30T06:33:25;100523.66;;;16.02;97.40
53932;BME280;39844;52.496;13.482;2023-08-30T06:35:50;100517.38;;;16.06;98.91
53932;BME280;39844;52.496;13.482;2023-08-30T06:38:16;100517.25;;;16.10;97.43
53932;BME280;39844;52.496;13.482;2023-08-30T06:40:45;100510.03;;;16.15;97.07
53932;BME280;39844;52.496;13.482;2023-08-30T06:43:11;100518.78;;;16.17;96.49
53932;BME280;39844;52.496;13.482;2023-08-30T06:45:41;100523.09;;;16.21;95.59
53932;BME280;39844;52.496;13.482;2023-08-30T06:48:06;100518.56;;;16.25;94.09
53932;BME280;39844;52.496;13.482;2023-08-30T06:50:32;100511.47;;;16.27;92.99
53932;BME280;39844;52.496;13.482;2023-08-30T06:52:57;100508.91;;;16.22;91.94
53932;BME280;39844;52.496;13.482;2023-08-30T06:55:22;100520.25;;;16.27;91.88
53932;BME280;39844;52.496;13.482;2023-08-30T06:57:48;100510.50;;;16.29;91.09
53932;BME280;39844;52.496;13.482;2023-08-30T07:00:13;100510.38;;;16.32;90.07
53932;BME280;39844;52.496;13.482;2023-08-30T07:02:39;100512.84;;;16.38;91.78
53932;BME280;39844;52.496;13.482;2023-08-30T07:05:04;100509.22;;;16.41;90.64
53932;BME280;39844;52.496;13.482;2023-08-30T07:07:31;100515.09;;;16.51;91.67
53932;BME280;39844;52.496;13.482;2023-08-30T07:09:56;100515.03;;;16.54;89.41
53932;BME280;39844;52.496;13.482;2023-08-30T07:12:22;100515.84;;;16.56;89.07
53932;BME280;39844;52.496;13.482;2023-08-30T07:14:47;100512.25;;;16.58;87.90
53932;BME280;39844;52.496;13.482;2023-08-30T07:17:12;100515.63;;;16.63;87.97
53932;BME280;39844;52.496;13.482;2023-08-30T07:19:38;100516.16;;;16.74;88.29
53932;BME280;39844;52.496;13.482;2023-08-30T07:22:03;100516.72;;;16.84;86.26
53932;BME280;39844;52.496;13.482;2023-08-30T07:24:28;100508.56;;;16.90;87.10
53932;BME280;39844;52.496;13.482;2023-08-30T07:26:54;100508.22;;;17.00;88.16
53932;BME280;39844;52.496;13.482;2023-08-30T07:29:19;100505.50;;;17.02;85.47
53932;BME280;39844;52.496;13.482;2023-08-30T07:31:44;100507.72;;;17.14;88.35
53932;BME280;39844;52.496;13.482;2023-08-30T07:34:10;100509.38;;;17.18;85.32
53932;BME280;39844;52.496;13.482;2023-08-30T07:36:35;100514.69;;;17.18;84.71
53932;BME280;39844;52.496;13.482;2023-08-30T07:39:00;100516.38;;;17.19;84.11
53932;BME280;39844;52.496;13.482;2023-08-30T07:41:27;100514.69;;;17.18;83.49
53932;BME280;39844;52.496;13.482;2023-08-30T07:43:52;100526.25;;;17.16;83.39
53932;BME280;39844;52.496;13.482;2023-08-30T07:46:17;100521.44;;;17.27;85.89
53932;BME280;39844;52.496;13.482;2023-08-30T07:48:43;100520.69;;;17.23;82.61
53932;BME280;39844;52.496;13.482;2023-08-30T07:51:08;100526.91;;;17.22;81.60
53932;BME280;39844;52.496;13.482;2023-08-30T07:53:33;100535.66;;;17.24;83.03
53932;BME280;39844;52.496;13.482;2023-08-30T07:55:58;100530.88;;;17.35;84.53
53932;BME280;39844;52.496;13.482;2023-08-30T07:58:24;100534.28;;;17.39;84.38
53932;BME280;39844;52.496;13.482;2023-08-30T08:00:52;100533.16;;;17.46;84.42
53932;BME280;39844;52.496;13.482;2023-08-30T08:03:20;100520.00;;;17.43;82.14
53932;BME280;39844;52.496;13.482;2023-08-30T08:05:45;100522.91;;;17.35;81.21
53932;BME280;39844;52.496;13.482;2023-08-30T08:08:11;100516.00;;;17.31;80.70
53932;BME280;39844;52.496;13.482;2023-08-30T08:10:36;100522.81;;;17.38;82.72
53932;BME280;39844;52.496;13.482;2023-08-30T08:13:02;100530.50;;;17.46;81.99
53932;BME280;39844;52.496;13.482;2023-08-30T08:15:28;100523.34;;;17.48;79.78
53932;BME280;39844;52.496;13.482;2023-08-30T08:17:53;100521.66;;;17.45;79.27
53932;BME280;39844;52.496;13.482;2023-08-30T08:20:18;100526.91;;;17.47;80.26
53932;BME280;39844;52.496;13.482;2023-08-30T08:22:44;100520.56;;;17.52;80.52
53932;BME280;39844;52.496;13.482;2023-08-30T08:25:09;100515.16;;;17.55;79.50
53932;BME280;39844;52.496;13.482;2023-08-30T08:27:34;100516.66;;;17.62;79.98
53932;BME280;39844;52.496;13.482;2023-08-30T08:30:00;100524.31;;;17.72;80.05
53932;BME280;39844;52.496;13.482;2023-08-30T08:32:25;100521.41;;;17.78;79.89
53932;BME280;39844;52.496;13.482;2023-08-30T08:34:50;100513.91;;;17.89;80.06
53932;BME280;39844;52.496;13.482;2023-08-30T08:37:15;100520.84;;;17.93;78.78
53932;BME280;39844;52.496;13.482;2023-08-30T08:39:41;100511.78;;;17.98;78.69
53932;BME280;39844;52.496;13.482;2023-08-30T08:42:06;100515.88;;;18.07;78.36
53932;BME280;39844;52.496;13.482;2023-08-30T08:44:32;100514.63;;;18.17;79.39
53932;BME280;39844;52.496;13.482;2023-08-30T08:46:59;100520.44;;;18.26;78.86
53932;BME280;39844;52.496;13.482;2023-08-30T08:49:25;100511.38;;;18.32;77.97
53932;BME280;39844;52.496;13.482;2023-08-30T08:51:51;100514.50;;;18.42;77.50
53932;BME280;39844;52.496;13.482;2023-08-30T08:54:16;100504.19;;;18.57;78.35
53932;BME280;39844;52.496;13.482;2023-08-30T08:56:42;100502.09;;;18.65;76.63
53932;BME280;39844;52.496;13.482;2023-08-30T08:59:07;100506.59;;;18.63;72.77
53932;BME280;39844;52.496;13.482;2023-08-30T09:01:34;100505.78;;;18.61;72.45
53932;BME280;39844;52.496;13.482;2023-08-30T09:03:59;100503.19;;;18.60;72.65
53932;BME280;39844;52.496;13.482;2023-08-30T09:06:25;100504.78;;;18.64;72.84
53932;BME280;39844;52.496;13.482;2023-08-30T09:08:50;100504.34;;;18.74;73.28
53932;BME280;39844;52.496;13.482;2023-08-30T09:11:16;100502.94;;;18.87;73.41
53932;BME280;39844;52.496;13.482;2023-08-30T09:13:43;100496.16;;;19.01;72.62
53932;BME280;39844;52.496;13.482;2023-08-30T09:16:12;100487.75;;;19.11;71.34
53932;BME280;39844;52.496;13.482;2023-08-30T09:18:37;100487.63;;;19.14;71.70
53932;BME280;39844;52.496;13.482;2023-08-30T09:21:07;100487.53;;;19.16;71.03
53932;BME280;39844;52.496;13.482;2023-08-30T09:23:33;100488.41;;;19.16;70.70
53932;BME280;39844;52.496;13.482;2023-08-30T09:25:58;100483.34;;;19.10;69.52
53932;BME280;39844;52.496;13.482;2023-08-30T09:28:23;100493.66;;;19.18;71.75
53932;BME280;39844;52.496;13.482;2023-08-30T09:30:49;100479.34;;;19.20;70.48
53932;BME280;39844;52.496;13.482;2023-08-30T09:33:15;100477.13;;;19.30;71.35
53932;BME280;39844;52.496;13.482;2023-08-30T09:35:44;100476.09;;;19.34;70.47
53932;BME280;39844;52.496;13.482;2023-08-30T09:38:16;100474.13;;;19.39;71.58
53932;BME280;39844;52.496;13.482;2023-08-30T09:40:41;100476.00;;;19.35;71.35
53932;BME280;39844;52.496;13.482;2023-08-30T09:43:07;100473.44;;;19.34;72.01
53932;BME280;39844;52.496;13.482;2023-08-30T09:45:32;100479.53;;;19.36;72.31
53932;BME280;39844;52.496;13.482;2023-08-30T09:48:00;100481.81;;;19.25;69.11
53932;BME280;39844;52.496;13.482;2023-08-30T09:50:26;100484.13;;;19.12;68.50
53932;BME280;39844;52.496;13.482;2023-08-30T09:52:54;100486.19;;;19.06;67.47
53932;BME280;39844;52.496;13.482;2023-08-30T09:55:20;100479.13;;;19.05;66.94
53932;BME280;39844;52.496;13.482;2023-08-30T09:57:47;100475.81;;;19.20;69.83
53932;BME280;39844;52.496;13.482;2023-08-30T10:00:14;100472.66;;;19.32;69.98
53932;BME280;39844;52.496;13.482;2023-08-30T10:02:42;100475.84;;;19.40;68.21
53932;BME280;39844;52.496;13.482;2023-08-30T10:05:08;100469.78;;;19.36;65.07
53932;BME280;39844;52.496;13.482;2023-08-30T10:07:35;100460.25;;;19.31;66.26
53932;BME280;39844;52.496;13.482;2023-08-30T10:10:02;100462.59;;;19.38;68.20
53932;BME280;39844;52.496;13.482;2023-08-30T10:12:28;100465.50;;;19.32;65.97
53932;BME280;39844;52.496;13.482;2023-08-30T10:14:54;100458.25;;;19.36;66.41
53932;BME280;39844;52.496;13.482;2023-08-30T10:17:19;100458.41;;;19.53;68.09
53932;BME280;39844;52.496;13.482;2023-08-30T10:19:49;100457.78;;;19.67;67.48
53932;BME280;39844;52.496;13.482;2023-08-30T10:22:16;100453.25;;;19.69;65.96
53932;BME280;39844;52.496;13.482;2023-08-30T10:24:45;100451.31;;;19.72;66.57
53932;BME280;39844;52.496;13.482;2023-08-30T10:27:14;100448.44;;;19.77;65.70
53932;BME280;39844;52.496;13.482;2023-08-30T10:29:40;100450.59;;;19.87;64.81
53932;BME280;39844;52.496;13.482;2023-08-30T10:32:06;100452.63;;;19.82;62.08
53932;BME280;39844;52.496;13.482;2023-08-30T10:34:33;100450.59;;;19.87;63.51
53932;BME280;39844;52.496;13.482;2023-08-30T10:36:59;100457.94;;;20.01;62.98
53932;BME280;39844;52.496;13.482;2023-08-30T10:39:33;100467.09;;;20.14;62.94
53932;BME280;39844;52.496;13.482;2023-08-30T10:41:59;100458.25;;;20.13;60.75
53932;BME280;39844;52.496;13.482;2023-08-30T10:44:24;100463.41;;;20.16;61.12
53932;BME280;39844;52.496;13.482;2023-08-30T10:46:53;100471.53;;;20.34;61.24
53932;BME280;39844;52.496;13.482;2023-08-30T10:49:19;100465.28;;;20.52;61.01
53932;BME280;39844;52.496;13.482;2023-08-30T10:51:45;100468.28;;;20.63;59.27
53932;BME280;39844;52.496;13.482;2023-08-30T10:54:14;100461.72;;;20.70;59.95
53932;BME280;39844;52.496;13.482;2023-08-30T10:56:56;100468.00;;;20.69;59.00
53932;BME280;39844;52.496;13.482;2023-08-30T10:59:23;100462.91;;;20.64;59.41
53932;BME280;39844;52.496;13.482;2023-08-30T11:01:49;100460.16;;;20.66;59.28
53932;BME280;39844;52.496;13.482;2023-08-30T11:04:16;100456.00;;;20.77;60.92
53932;BME280;39844;52.496;13.482;2023-08-30T11:06:47;100458.91;;;20.90;61.74
53932;BME280;39844;52.496;13.482;2023-08-30T11:09:14;100465.06;;;20.92;60.80
53932;BME280;39844;52.496;13.482;2023-08-30T11:11:40;100456.09;;;20.93;61.15
53932;BME280;39844;52.496;13.482;2023-08-30T11:14:08;100464.09;;;20.93;63.19
53932;BME280;39844;52.496;13.482;2023-08-30T11:16:35;100461.56;;;20.90;63.52
53932;BME280;39844;52.496;13.482;2023-08-30T11:19:01;100464.97;;;20.76;60.00
53932;BME280;39844;52.496;13.482;2023-08-30T11:21:27;100460.78;;;20.71;63.46
53932;BME280;39844;52.496;13.482;2023-08-30T11:23:52;100461.41;;;20.59;59.94
53932;BME280;39844;52.496;13.482;2023-08-30T11:26:17;100467.16;;;20.50;60.86
53932;BME280;39844;52.496;13.482;2023-08-30T11:28:43;100468.91;;;20.51;60.17
53932;BME280;39844;52.496;13.482;2023-08-30T11:31:08;100467.31;;;20.47;58.80
53932;BME280;39844;52.496;13.482;2023-08-30T11:33:33;100465.59;;;20.46;59.85
53932;BME280;39844;52.496;13.482;2023-08-30T11:35:58;100453.78;;;20.51;60.82
53932;BME280;39844;52.496;13.482;2023-08-30T11:38:24;100460.94;;;20.68;61.19
53932;BME280;39844;52.496;13.482;2023-08-30T11:40:51;100461.66;;;20.89;58.75
53932;BME280;39844;52.496;13.482;2023-08-30T11:43:16;100459.09;;;21.04;58.99
53932;BME280;39844;52.496;13.482;2023-08-30T11:45:42;100451.97;;;21.22;57.14
53932;BME280;39844;52.496;13.482;2023-08-30T11:48:07;100456.66;;;21.34;56.79
53932;BME280;39844;52.496;13.482;2023-08-30T11:50:33;100454.88;;;21.34;56.30
53932;BME280;39844;52.496;13.482;2023-08-30T11:52:59;100457.13;;;21.42;56.62
53932;BME280;39844;52.496;13.482;2023-08-30T11:55:24;100451.63;;;21.45;55.69
53932;BME280;39844;52.496;13.482;2023-08-30T11:57:50;100449.00;;;21.28;53.96
53932;BME280;39844;52.496;13.482;2023-08-30T12:00:18;100446.41;;;21.09;53.15
53932;BME280;39844;52.496;13.482;2023-08-30T12:02:45;100445.13;;;20.99;52.50
53932;BME280;39844;52.496;13.482;2023-08-30T12:05:14;100450.31;;;21.02;53.68
53932;BME280;39844;52.496;13.482;2023-08-30T12:07:39;100445.75;;;21.04;56.30
53932;BME280;39844;52.496;13.482;2023-08-30T12:10:08;100441.97;;;20.91;53.85
53932;BME280;39844;52.496;13.482;2023-08-30T12:12:34;100446.03;;;20.81;54.36
53932;BME280;39844;52.496;13.482;2023-08-30T12:14:59;100444.94;;;20.68;53.65
53932;BME280;39844;52.496;13.482;2023-08-30T12:17:24;100442.09;;;20.71;55.30
53932;BME280;39844;52.496;13.482;2023-08-30T12:19:57;100438.13;;;20.79;56.83
53932;BME280;39844;52.496;13.482;2023-08-30T12:22:22;100443.72;;;20.92;56.86
53932;BME280;39844;52.496;13.482;2023-08-30T12:24:48;100435.13;;;21.03;56.19
53932;BME280;39844;52.496;13.482;2023-08-30T12:27:13;100432.97;;;21.11;56.87
53932;BME280;39844;52.496;13.482;2023-08-30T12:29:39;100439.44;;;21.05;55.07